Time;durP1;ratioP1;P1;durP2;ratioP2;P2;SDS_P1;SDS_P2;PMS_P1;PMS_P2;Temp;Humidity;BMP_temperature;BMP_pressure;BME280_temperature;BME280_humidity;BME280_pressure;Samples;Min_cycle;Max_cycle;Signal;HPM_P1;HPM_P2
2023/05/31 00:02:16;;;;;;;10.50;6.80;;;;;;;10.74;81.20;99514.48;109371;1253;60094;-71
2023/05/31 00:04:43;;;;;;;11.30;6.40;;;;;;;10.72;81.55;99515.98;109356;1253;63926;-70
2023/05/31 00:07:09;;;;;;;12.10;6.80;;;;;;;10.69;82.17;99517.42;109319;1253;59023;-70
2023/05/31 00:09:36;;;;;;;12.80;6.20;;;;;;;10.62;82.78;99515.55;109355;1253;59039;-71
2023/05/31 00:12:03;;;;;;;11.60;6.70;;;;;;;10.54;82.93;99513.86;109344;1253;66936;-70
2023/05/31 00:14:29;;;;;;;10.60;6.50;;;;;;;10.50;83.14;99511.95;109027;1253;61114;-70
2023/05/31 00:16:56;;;;;;;8.00;6.10;;;;;;;10.48;83.48;99510.83;109342;1253;65212;-70
2023/05/31 00:19:23;;;;;;;10.40;6.50;;;;;;;10.45;84.03;99514.39;109334;1253;59259;-70
2023/05/31 00:21:49;;;;;;;12.40;6.10;;;;;;;10.40;84.78;99512.89;109043;1253;59053;-70
2023/05/31 00:24:16;;;;;;;11.80;6.90;;;;;;;10.36;85.44;99514.18;109357;1253;65986;-70
2023/05/31 00:26:43;;;;;;;9.90;7.30;;;;;;;10.33;85.98;99514.17;109351;1253;61207;-70
2023/05/31 00:29:09;;;;;;;10.50;6.80;;;;;;;10.32;86.69;99509.09;109327;1253;63860;-71
2023/05/31 00:31:36;;;;;;;16.20;9.50;;;;;;;10.30;86.81;99509.02;109339;1253;59142;-71
2023/05/31 00:34:03;;;;;;;12.00;8.80;;;;;;;10.28;87.26;99509.14;109326;1253;59106;-71
2023/05/31 00:36:30;;;;;;;15.90;7.90;;;;;;;10.26;87.85;99511.02;109060;1253;66145;-70
2023/05/31 00:38:57;;;;;;;12.70;8.60;;;;;;;10.24;88.39;99510.21;109362;1253;60401;-70
2023/05/31 00:41:25;;;;;;;12.00;8.00;;;;;;;10.24;88.65;99516.07;109335;1253;65493;-69
2023/05/31 00:43:53;;;;;;;12.70;8.00;;;;;;;10.23;88.59;99516.68;109376;1253;59334;-70
2023/05/31 00:46:35;;;;;;;12.20;7.90;;;;;;;10.18;89.04;99519.61;109335;1253;59037;-70
2023/05/31 00:49:02;;;;;;;9.50;7.00;;;;;;;10.08;89.48;99520.88;109318;1253;67088;-70
2023/05/31 00:51:31;;;;;;;9.50;7.10;;;;;;;10.00;89.57;99517.45;109355;1253;61207;-70
2023/05/31 00:53:59;;;;;;;13.90;7.70;;;;;;;9.94;90.13;99516.36;109394;1253;62809;-70
2023/05/31 00:56:26;;;;;;;9.80;7.10;;;;;;;9.90;90.56;99517.10;109028;1253;58947;-70
2023/05/31 00:58:56;;;;;;;11.40;7.30;;;;;;;9.87;90.85;99517.83;109329;1253;59052;-71
2023/05/31 01:01:26;;;;;;;12.40;7.70;;;;;;;9.82;91.31;99515.44;109358;1253;67205;-70
2023/05/31 01:03:56;;;;;;;13.20;7.30;;;;;;;9.77;91.56;99519.92;109388;1253;60656;-71
2023/05/31 01:06:30;;;;;;;11.90;7.80;;;;;;;9.74;91.86;99524.04;109348;1253;64150;-70
2023/05/31 01:08:56;;;;;;;10.80;7.70;;;;;;;9.70;92.47;99527.46;109373;1253;59057;-70
2023/05/31 01:11:44;;;;;;;13.70;8.00;;;;;;;9.66;93.03;99527.45;109393;1253;59138;-70
2023/05/31 01:14:20;;;;;;;12.60;7.40;;;;;;;9.62;93.77;99524.68;109381;1253;66147;-70
2023/05/31 01:17:13;;;;;;;12.70;7.90;;;;;;;9.57;94.36;99526.04;109384;1253;60028;-70
2023/05/31 01:19:47;;;;;;;10.70;8.30;;;;;;;9.48;95.17;99528.13;108686;1263;65029;-70
2023/05/31 01:22:44;;;;;;;10.70;7.50;;;;;;;9.38;95.27;99527.58;108702;1263;59093;-71
2023/05/31 01:25:45;;;;;;;10.60;7.20;;;;;;;9.33;95.56;99526.65;108678;1264;59081;-71
2023/05/31 01:28:14;;;;;;;13.10;7.90;;;;;;;9.30;96.25;99525.35;108688;1262;66139;-71
2023/05/31 01:30:45;;;;;;;10.80;7.00;;;;;;;9.29;96.84;99526.83;108696;1263;61541;-71
2023/05/31 01:33:12;;;;;;;12.50;7.30;;;;;;;9.27;97.77;99527.84;108677;1264;64866;-71
2023/05/31 01:35:39;;;;;;;11.90;7.50;;;;;;;9.22;98.25;99533.54;108707;1263;59137;-71
2023/05/31 01:38:06;;;;;;;11.50;7.20;;;;;;;9.19;99.13;99536.94;108709;1263;59104;-70
2023/05/31 01:40:34;;;;;;;14.40;8.40;;;;;;;9.17;99.79;99540.92;108676;1263;67295;-70
2023/05/31 01:43:02;;;;;;;16.10;9.50;;;;;;;9.17;100.00;99541.83;108700;1262;60513;-70
2023/05/31 01:45:30;;;;;;;11.70;7.70;;;;;;;9.18;100.00;99536.62;108670;1262;65138;-70
2023/05/31 01:48:01;;;;;;;11.00;7.80;;;;;;;9.19;100.00;99531.26;108703;1263;59478;-70
2023/05/31 01:50:29;;;;;;;13.70;8.80;;;;;;;9.17;100.00;99529.05;108692;1262;59104;-71
2023/05/31 01:52:55;;;;;;;12.10;9.30;;;;;;;9.14;100.00;99527.63;108649;1263;67186;-70
2023/05/31 01:55:22;;;;;;;11.30;8.70;;;;;;;9.10;100.00;99530.48;108705;1262;59785;-70
2023/05/31 01:57:50;;;;;;;11.10;8.70;;;;;;;9.09;100.00;99527.73;109294;1253;64806;-70
2023/05/31 02:00:35;;;;;;;12.90;8.40;;;;;;;9.07;100.00;99524.96;109043;1253;59258;-70
2023/05/31 02:03:03;;;;;;;13.70;8.30;;;;;;;9.01;100.00;99528.80;109359;1253;59057;-70
2023/05/31 02:05:30;;;;;;;12.10;8.50;;;;;;;8.97;100.00;99531.70;109388;1253;66733;-70
2023/05/31 02:07:57;;;;;;;11.20;8.20;;;;;;;8.93;100.00;99537.55;109386;1253;61208;-70
2023/05/31 02:10:23;;;;;;;12.80;8.80;;;;;;;8.90;100.00;99535.42;109322;1253;64185;-71
2023/05/31 02:12:50;;;;;;;18.00;10.00;;;;;;;8.86;100.00;99534.91;109297;1253;59365;-71
2023/05/31 02:15:19;;;;;;;14.30;8.80;;;;;;;8.82;100.00;99535.10;109041;1253;59073;-71
2023/05/31 02:17:50;;;;;;;12.80;8.60;;;;;;;8.80;100.00;99536.63;109361;1253;64844;-71
2023/05/31 02:20:17;;;;;;;11.70;8.80;;;;;;;8.77;100.00;99538.39;109370;1253;61172;-71
2023/05/31 02:22:45;;;;;;;10.20;8.20;;;;;;;8.72;100.00;99537.73;109349;1253;65276;-71
2023/05/31 02:25:13;;;;;;;13.00;9.40;;;;;;;8.66;100.00;99536.83;109370;1253;58974;-71
2023/05/31 02:27:41;;;;;;;16.90;10.00;;;;;;;8.61;100.00;99537.09;109178;1253;59004;-71
2023/05/31 02:30:09;;;;;;;16.20;10.80;;;;;;;8.56;100.00;99536.93;109359;1253;66075;-70
2023/05/31 02:32:37;;;;;;;15.50;11.10;;;;;;;8.54;100.00;99534.23;109384;1253;60806;-71
2023/05/31 02:35:05;;;;;;;13.90;10.50;;;;;;;8.53;100.00;99530.03;109367;1253;64789;-72
2023/05/31 02:37:33;;;;;;;15.50;10.40;;;;;;;8.53;100.00;99529.49;109352;1253;59116;-70
2023/05/31 02:39:59;;;;;;;12.80;9.80;;;;;;;8.53;100.00;99528.41;109215;1253;59051;-70
2023/05/31 02:42:26;;;;;;;16.10;10.30;;;;;;;8.55;100.00;99526.39;109416;1253;67104;-70
2023/05/31 02:44:52;;;;;;;17.10;10.30;;;;;;;8.53;100.00;99526.11;109400;1253;60313;-71
2023/05/31 02:47:19;;;;;;;17.10;10.40;;;;;;;8.52;100.00;99524.06;109357;1253;65233;-70
2023/05/31 02:49:46;;;;;;;17.80;11.10;;;;;;;8.51;100.00;99526.92;109352;1256;59160;-70
2023/05/31 02:52:12;;;;;;;15.90;10.50;;;;;;;8.54;100.00;99533.33;109381;1253;59324;-71
2023/05/31 02:54:39;;;;;;;13.30;10.40;;;;;;;8.58;100.00;99537.57;109380;1253;66250;-71
2023/05/31 02:57:06;;;;;;;11.90;9.60;;;;;;;8.60;100.00;99537.29;109373;1253;60288;-71
2023/05/31 02:59:33;;;;;;;11.20;9.30;;;;;;;8.59;100.00;99538.08;109335;1253;64156;-70
2023/05/31 03:02:00;;;;;;;11.60;9.00;;;;;;;8.55;100.00;99540.21;109360;1253;58909;-70
2023/05/31 03:04:27;;;;;;;12.90;9.10;;;;;;;8.54;100.00;99538.97;109009;1253;59079;-71
2023/05/31 03:06:53;;;;;;;14.70;10.40;;;;;;;8.59;100.00;99538.23;109378;1253;67097;-71
2023/05/31 03:09:20;;;;;;;13.90;9.50;;;;;;;8.63;100.00;99542.96;109123;1253;60553;-70
2023/05/31 03:11:46;;;;;;;11.30;8.60;;;;;;;8.70;100.00;99543.00;109357;1253;65097;-70
2023/05/31 03:14:13;;;;;;;12.70;9.60;;;;;;;8.75;100.00;99548.02;109376;1253;59164;-71
2023/05/31 03:16:39;;;;;;;13.10;9.60;;;;;;;8.83;100.00;99547.45;109370;1253;59269;-70
2023/05/31 03:19:07;;;;;;;17.80;10.20;;;;;;;8.92;100.00;99547.73;109383;1253;65909;-71
2023/05/31 03:21:33;;;;;;;14.30;9.70;;;;;;;9.24;100.00;99545.55;109048;1253;61167;-69
2023/05/31 03:24:00;;;;;;;13.60;8.80;;;;;;;10.08;100.00;99544.90;109363;1253;64791;-72
2023/05/31 03:26:26;;;;;;;11.20;8.60;;;;;;;11.01;100.00;99551.62;109000;1253;59148;-71
2023/05/31 03:28:53;;;;;;;15.30;8.90;;;;;;;11.76;98.68;99553.27;109101;1253;59034;-72
2023/05/31 03:31:20;;;;;;;12.50;8.60;;;;;;;12.42;95.14;99548.52;109356;1253;66098;-70
2023/05/31 03:33:46;;;;;;;11.40;8.70;;;;;;;13.07;90.67;99547.52;109415;1253;61160;-71
2023/05/31 03:36:13;;;;;;;13.20;8.80;;;;;;;13.73;87.01;99551.36;109365;1253;65056;-71
2023/05/31 03:38:39;;;;;;;9.50;8.10;;;;;;;14.38;84.33;99548.41;109355;1253;59247;-71
2023/05/31 03:41:06;;;;;;;9.40;7.20;;;;;;;15.02;81.29;99546.88;109423;1253;59148;-72
2023/05/31 03:43:33;;;;;;;12.30;8.10;;;;;;;15.64;78.74;99548.92;109381;1253;66048;-72
2023/05/31 03:46:02;;;;;;;8.40;7.30;;;;;;;16.25;76.82;99546.66;109184;1253;59104;-71
2023/05/31 03:48:29;;;;;;;9.50;8.30;;;;;;;16.84;74.81;99545.59;109372;1253;64054;-72
2023/05/31 03:50:58;;;;;;;11.00;8.10;;;;;;;17.46;72.92;99541.21;109369;1253;59036;-71
2023/05/31 03:53:25;;;;;;;8.90;7.60;;;;;;;18.05;71.19;99544.08;109385;1253;59115;-71
2023/05/31 03:55:52;;;;;;;10.40;8.50;;;;;;;18.72;69.93;99541.70;109361;1253;67067;-71
2023/05/31 03:58:19;;;;;;;10.80;8.10;;;;;;;19.37;67.57;99545.91;109416;1253;60157;-71
2023/05/31 04:00:46;;;;;;;12.00;8.00;;;;;;;19.80;64.92;99545.44;109066;1253;65210;-71
2023/05/31 04:03:14;;;;;;;16.40;8.40;;;;;;;20.15;63.48;99542.92;109183;1253;59502;-71
2023/05/31 04:05:40;;;;;;;9.80;7.70;;;;;;;20.59;61.68;99545.04;109457;1253;59001;-72
2023/05/31 04:08:07;;;;;;;10.20;6.60;;;;;;;20.91;60.17;99541.13;109060;1253;66629;-70
2023/05/31 04:10:34;;;;;;;12.30;7.10;;;;;;;21.20;57.81;99536.25;109402;1253;59084;-73
2023/05/31 04:13:00;;;;;;;9.80;7.10;;;;;;;21.22;56.51;99538.14;109415;1253;64173;-73
2023/05/31 04:15:27;;;;;;;9.40;6.80;;;;;;;21.37;56.02;99537.03;109389;1253;58889;-71
2023/05/31 04:17:55;;;;;;;11.80;7.60;;;;;;;21.55;55.43;99532.11;109397;1253;59134;-70
2023/05/31 04:20:22;;;;;;;15.00;9.00;;;;;;;21.67;53.86;99528.44;109443;1253;65995;-70
2023/05/31 04:22:48;;;;;;;10.80;7.60;;;;;;;21.74;53.01;99527.41;109392;1253;60268;-73
2023/05/31 04:25:17;;;;;;;11.10;6.90;;;;;;;21.82;51.99;99522.14;109112;1253;62977;-71
2023/05/31 04:27:43;;;;;;;8.40;6.30;;;;;;;21.97;51.14;99519.52;109374;1253;59218;-71
2023/05/31 04:30:10;;;;;;;7.50;6.40;;;;;;;22.03;50.20;99516.02;109403;1253;59060;-74
2023/05/31 04:32:37;;;;;;;9.50;7.10;;;;;;;22.06;49.68;99517.52;109426;1253;64778;-71
2023/05/31 04:35:05;;;;;;;12.60;6.80;;;;;;;22.46;49.76;99518.05;109461;1253;60627;-73
2023/05/31 04:37:33;;;;;;;14.60;7.40;;;;;;;22.90;48.74;99522.77;109380;1253;65145;-71
2023/05/31 04:40:00;;;;;;;12.90;6.70;;;;;;;23.12;47.89;99523.95;109351;1253;58948;-70
2023/05/31 04:42:26;;;;;;;11.00;7.60;;;;;;;23.24;47.10;99526.47;109378;1253;59271;-71
2023/05/31 04:44:55;;;;;;;12.20;7.80;;;;;;;23.26;46.80;99524.15;109427;1253;67129;-71
2023/05/31 04:47:22;;;;;;;9.90;6.40;;;;;;;23.47;46.43;99525.31;109455;1253;61386;-71
2023/05/31 04:49:49;;;;;;;9.60;6.80;;;;;;;23.84;46.56;99524.98;109394;1253;65124;-71
2023/05/31 04:52:15;;;;;;;10.50;6.20;;;;;;;24.31;45.39;99528.09;108991;1253;59014;-71
2023/05/31 04:54:42;;;;;;;6.30;5.20;;;;;;;24.58;44.45;99528.91;109432;1253;59012;-71
2023/05/31 04:57:08;;;;;;;10.40;5.80;;;;;;;24.71;43.53;99533.95;109412;1253;67161;-72
2023/05/31 04:59:35;;;;;;;7.50;5.80;;;;;;;24.84;43.04;99529.36;109395;1253;61034;-71
2023/05/31 05:02:02;;;;;;;8.80;5.50;;;;;;;25.06;42.80;99530.73;109421;1253;64240;-71
2023/05/31 05:04:29;;;;;;;8.80;5.80;;;;;;;25.22;42.16;99529.80;109384;1254;59009;-71
2023/05/31 05:06:55;;;;;;;9.50;6.30;;;;;;;25.23;41.70;99530.89;109410;1253;59020;-71
2023/05/31 05:09:22;;;;;;;12.80;7.30;;;;;;;25.36;41.35;99534.75;109438;1253;66164;-71
2023/05/31 05:11:49;;;;;;;12.20;6.90;;;;;;;25.56;40.93;99534.94;109384;1253;61289;-71
2023/05/31 05:14:15;;;;;;;12.50;7.50;;;;;;;25.56;40.70;99533.51;109103;1253;65251;-72
2023/05/31 05:16:42;;;;;;;7.80;6.70;;;;;;;25.67;40.53;99534.30;109424;1253;59437;-70
2023/05/31 05:19:08;;;;;;;14.30;7.70;;;;;;;25.73;39.97;99538.01;109402;1253;58996;-72
2023/05/31 05:21:35;;;;;;;13.90;9.00;;;;;;;25.81;39.95;99539.56;109431;1253;67260;-71
2023/05/31 05:24:02;;;;;;;12.10;8.80;;;;;;;25.85;39.70;99542.37;109450;1253;61140;-70
2023/05/31 05:26:28;;;;;;;12.80;8.60;;;;;;;25.89;39.70;99546.45;109130;1253;65133;-71
2023/05/31 05:28:55;;;;;;;14.70;9.70;;;;;;;25.99;39.38;99547.41;109030;1253;59038;-71
2023/05/31 05:31:22;;;;;;;16.30;10.10;;;;;;;25.99;39.13;99544.84;109420;1253;59016;-70
2023/05/31 05:33:50;;;;;;;11.50;7.20;;;;;;;25.90;38.90;99548.11;109022;1253;67264;-71
2023/05/31 05:36:17;;;;;;;9.50;6.40;;;;;;;25.75;38.34;99545.14;109419;1253;61016;-70
2023/05/31 05:38:43;;;;;;;11.80;6.70;;;;;;;25.47;38.06;99544.37;109394;1253;65212;-70
2023/05/31 05:41:12;;;;;;;22.70;8.00;;;;;;;25.32;38.31;99548.86;109387;1256;58961;-70
2023/05/31 05:43:39;;;;;;;9.50;6.90;;;;;;;25.44;38.49;99546.21;109130;1253;59296;-70
2023/05/31 05:46:06;;;;;;;15.20;6.50;;;;;;;25.76;38.66;99546.54;109422;1256;67277;-70
2023/05/31 05:48:33;;;;;;;17.20;6.90;;;;;;;25.96;38.67;99549.05;109424;1253;60182;-71
2023/05/31 05:51:00;;;;;;;13.40;6.40;;;;;;;26.16;38.84;99552.72;109410;1253;64471;-68
2023/05/31 05:53:27;;;;;;;7.50;5.30;;;;;;;26.42;37.99;99557.17;109416;1253;58995;-69
2023/05/31 05:55:54;;;;;;;8.20;5.70;;;;;;;26.58;37.77;99560.20;109386;1253;59413;-69
2023/05/31 05:58:21;;;;;;;7.70;5.40;;;;;;;26.82;37.80;99555.43;109407;1257;65967;-70
2023/05/31 06:00:48;;;;;;;10.60;5.60;;;;;;;27.00;37.33;99551.88;109416;1253;60177;-71
2023/05/31 06:03:15;;;;;;;8.90;6.10;;;;;;;27.07;37.00;99553.37;109407;1253;65117;-71
2023/05/31 06:05:41;;;;;;;6.50;5.20;;;;;;;27.15;36.93;99554.14;109407;1253;59370;-70
2023/05/31 06:08:10;;;;;;;6.60;4.80;;;;;;;27.21;36.82;99551.67;109461;1253;58874;-71
2023/05/31 06:10:37;;;;;;;7.00;4.30;;;;;;;27.18;36.33;99553.88;109462;1253;67268;-71
2023/05/31 06:13:04;;;;;;;8.40;4.60;;;;;;;27.11;36.22;99553.74;109400;1257;61081;-72
2023/05/31 06:15:31;;;;;;;5.30;4.60;;;;;;;27.15;35.93;99548.19;109399;1253;64115;-74
2023/05/31 06:17:57;;;;;;;5.30;4.10;;;;;;;27.08;35.73;99549.84;109416;1253;58940;-75
2023/05/31 06:20:25;;;;;;;10.10;5.30;;;;;;;27.04;35.76;99549.77;109238;1253;59210;-75
2023/05/31 06:22:53;;;;;;;7.00;4.30;;;;;;;27.06;35.73;99552.89;109427;1253;67139;-76
2023/05/31 06:25:20;;;;;;;9.10;4.30;;;;;;;27.07;35.89;99554.97;109424;1253;61424;-76
2023/05/31 06:27:47;;;;;;;11.30;5.80;;;;;;;27.06;35.82;99553.52;109431;1253;64251;-76
2023/05/31 06:30:15;;;;;;;8.90;5.20;;;;;;;27.00;35.55;99550.32;109426;1253;59080;-77
2023/05/31 06:32:41;;;;;;;7.60;5.50;;;;;;;26.94;35.60;99548.82;109172;1253;59097;-75
2023/05/31 06:35:08;;;;;;;8.30;5.20;;;;;;;26.86;35.41;99547.23;109054;1253;66413;-76
2023/05/31 06:37:35;;;;;;;7.80;4.20;;;;;;;26.76;35.61;99545.86;109413;1253;59028;-75
2023/05/31 06:40:04;;;;;;;7.10;5.10;;;;;;;26.73;35.41;99547.30;109279;1253;203146;-75
2023/05/31 06:42:32;;;;;;;5.80;5.20;;;;;;;26.61;35.37;99547.50;109428;1253;59285;-75
2023/05/31 06:44:58;;;;;;;8.50;5.20;;;;;;;26.51;35.35;99549.06;109408;1253;58868;-76
2023/05/31 06:47:25;;;;;;;6.80;5.20;;;;;;;26.36;35.36;99549.33;109439;1253;65724;-76
2023/05/31 06:49:52;;;;;;;7.80;5.10;;;;;;;26.15;35.32;99551.28;109036;1261;61332;-76
2023/05/31 06:52:18;;;;;;;6.80;4.80;;;;;;;26.03;35.70;99552.55;109148;1253;65156;-75
2023/05/31 06:54:45;;;;;;;9.20;5.30;;;;;;;25.95;35.34;99549.66;109395;1257;58994;-75
2023/05/31 06:57:11;;;;;;;6.10;4.20;;;;;;;25.85;35.59;99554.89;109453;1253;59114;-75
2023/05/31 06:59:38;;;;;;;6.70;5.60;;;;;;;25.84;36.62;99553.66;109471;1253;67011;-76
2023/05/31 07:02:06;;;;;;;9.80;6.00;;;;;;;25.92;37.05;99552.35;109412;1253;60160;-76
2023/05/31 07:04:33;;;;;;;6.80;5.30;;;;;;;26.07;37.42;99547.52;109017;1253;63742;-76
2023/05/31 07:06:59;;;;;;;9.10;5.30;;;;;;;26.17;37.48;99546.56;109399;1253;58967;-76
2023/05/31 07:09:26;;;;;;;6.80;4.30;;;;;;;26.17;36.79;99548.40;109396;1253;58934;-75
2023/05/31 07:11:52;;;;;;;7.70;3.80;;;;;;;25.97;36.27;99545.58;109378;1253;66158;-71
2023/05/31 07:14:19;;;;;;;7.60;3.90;;;;;;;25.70;35.78;99550.70;109230;1253;61323;-70
2023/05/31 07:16:46;;;;;;;6.60;4.60;;;;;;;25.37;35.81;99551.19;109358;1253;63688;-71
2023/05/31 07:19:12;;;;;;;7.40;4.50;;;;;;;25.06;36.24;99550.17;109425;1253;59005;-81
2023/05/31 07:21:39;;;;;;;5.20;3.60;;;;;;;24.88;36.62;99552.10;109405;1253;58994;-78
2023/05/31 07:24:06;;;;;;;5.70;4.80;;;;;;;24.69;36.86;99550.19;109423;1253;67350;-80
2023/05/31 07:26:33;;;;;;;8.40;4.20;;;;;;;24.39;37.44;99553.63;108954;1253;60750;-79
2023/05/31 07:28:59;;;;;;;6.70;4.40;;;;;;;24.05;37.55;99549.39;109369;1253;65163;-72
2023/05/31 07:31:26;;;;;;;8.40;3.90;;;;;;;23.80;37.92;99548.61;109416;1253;58884;-72
2023/05/31 07:33:53;;;;;;;5.00;3.40;;;;;;;23.62;38.05;99547.16;109408;1255;59132;-72
2023/05/31 07:36:20;;;;;;;5.60;3.90;;;;;;;23.51;38.14;99544.13;109137;1256;65966;-73
2023/05/31 07:38:47;;;;;;;8.90;3.60;;;;;;;23.36;37.93;99546.29;109411;1253;60153;-72
2023/05/31 07:41:13;;;;;;;7.30;4.00;;;;;;;23.16;38.40;99548.20;109436;1253;64860;-72
2023/05/31 07:43:41;;;;;;;5.90;3.30;;;;;;;22.94;38.52;99549.69;109412;1253;59105;-72
2023/05/31 07:46:07;;;;;;;5.50;3.50;;;;;;;22.72;38.49;99542.80;109441;1253;59027;-72
2023/05/31 07:48:34;;;;;;;6.30;3.50;;;;;;;22.52;38.48;99541.59;109459;1253;66957;-71
2023/05/31 07:51:01;;;;;;;7.50;3.60;;;;;;;22.34;38.87;99538.98;109411;1253;60204;-71
2023/05/31 07:53:27;;;;;;;5.50;3.20;;;;;;;22.30;39.08;99538.35;109431;1253;65129;-72
2023/05/31 07:55:54;;;;;;;4.20;2.80;;;;;;;22.37;39.57;99535.38;109433;1253;59193;-72
2023/05/31 07:58:21;;;;;;;7.20;3.10;;;;;;;22.53;39.80;99531.83;109390;1254;59111;-71
2023/05/31 08:00:49;;;;;;;8.80;3.10;;;;;;;22.54;39.10;99531.15;109204;1253;66234;-71
2023/05/31 08:03:16;;;;;;;4.10;2.70;;;;;;;22.58;39.43;99525.14;109453;1253;60343;-72
2023/05/31 08:05:43;;;;;;;5.20;3.40;;;;;;;22.68;39.75;99524.41;109414;1253;64222;-72
2023/05/31 08:08:10;;;;;;;3.90;2.60;;;;;;;22.66;39.27;99523.52;109401;1253;59304;-72
2023/05/31 08:10:36;;;;;;;4.60;3.00;;;;;;;22.59;39.12;99525.17;109439;1253;59237;-72
2023/05/31 08:13:03;;;;;;;4.30;3.30;;;;;;;22.59;38.98;99528.48;109404;1253;66102;-71
2023/05/31 08:15:29;;;;;;;6.00;3.10;;;;;;;22.60;39.11;99526.40;109450;1253;61069;-72
2023/05/31 08:17:56;;;;;;;4.80;3.30;;;;;;;22.65;39.22;99525.13;109420;1253;65042;-71
2023/05/31 08:20:23;;;;;;;4.30;2.90;;;;;;;22.70;39.38;99526.31;109398;1253;58997;-71
2023/05/31 08:22:50;;;;;;;3.80;2.80;;;;;;;22.79;39.75;99524.80;109439;1253;59053;-71
2023/05/31 08:25:18;;;;;;;3.20;2.50;;;;;;;22.88;38.80;99527.99;109439;1253;67055;-72
2023/05/31 08:27:44;;;;;;;6.40;2.80;;;;;;;22.77;37.89;99525.58;109027;1253;59205;-72
2023/05/31 08:30:12;;;;;;;6.20;2.80;;;;;;;22.68;38.06;99524.91;109397;1253;62759;-72
2023/05/31 08:32:40;;;;;;;6.40;2.90;;;;;;;22.68;38.39;99523.30;109409;1253;59005;-72
2023/05/31 08:35:08;;;;;;;3.50;2.50;;;;;;;22.80;38.54;99521.84;109445;1253;59399;-72
2023/05/31 08:37:38;;;;;;;3.50;2.30;;;;;;;22.87;37.60;99524.70;109405;1253;64811;-72
2023/05/31 08:40:05;;;;;;;6.60;2.10;;;;;;;22.79;37.14;99527.58;109003;1253;60212;-72
2023/05/31 08:43:01;;;;;;;4.00;2.00;;;;;;;22.84;37.19;99525.38;108939;1253;64201;-72
2023/05/31 08:45:31;;;;;;;4.70;1.90;;;;;;;22.97;36.88;99526.13;109391;1253;59093;-71
2023/05/31 08:48:13;;;;;;;4.70;1.90;;;;;;;22.96;36.38;99524.73;109149;1253;58888;-71
2023/05/31 08:50:42;;;;;;;5.30;2.30;;;;;;;23.00;36.62;99523.95;109204;1253;65878;-72
2023/05/31 08:53:09;;;;;;;3.40;2.30;;;;;;;23.11;36.56;99521.52;109197;1253;60068;-72
2023/05/31 08:55:37;;;;;;;3.60;2.10;;;;;;;23.25;37.21;99520.14;109405;1253;64057;-72
2023/05/31 08:58:04;;;;;;;4.00;2.10;;;;;;;23.43;37.53;99525.60;109352;1253;59323;-72
2023/05/31 09:00:32;;;;;;;5.40;2.30;;;;;;;23.56;37.67;99521.49;109353;1253;59413;-72
2023/05/31 09:02:59;;;;;;;3.10;2.10;;;;;;;23.66;37.03;99523.27;109350;1253;67223;-71
2023/05/31 09:05:26;;;;;;;3.40;2.00;;;;;;;23.65;36.52;99525.77;109393;1253;59793;-71
2023/05/31 09:07:54;;;;;;;4.20;2.20;;;;;;;23.73;36.82;99520.39;109384;1253;65398;-71
2023/05/31 09:10:20;;;;;;;3.50;2.10;;;;;;;23.86;36.82;99516.58;109355;1253;59026;-72
2023/05/31 09:12:47;;;;;;;3.60;2.10;;;;;;;23.91;36.50;99518.50;109395;1253;58874;-71
2023/05/31 09:15:14;;;;;;;5.40;2.10;;;;;;;23.87;35.94;99521.17;109456;1253;64399;-71
2023/05/31 09:17:45;;;;;;;5.80;2.10;;;;;;;23.83;36.18;99522.01;109424;1253;60139;-71
2023/05/31 09:20:12;;;;;;;7.90;2.50;;;;;;;23.85;36.18;99520.25;109441;1253;64203;-72
2023/05/31 09:22:39;;;;;;;6.30;2.50;;;;;;;23.92;36.21;99519.82;109411;1253;59083;-72
2023/05/31 09:25:07;;;;;;;4.60;2.40;;;;;;;24.03;36.35;99516.98;109444;1253;58916;-71
2023/05/31 09:27:38;;;;;;;4.50;2.20;;;;;;;24.13;36.59;99513.84;109264;1253;67076;-72
2023/05/31 09:30:09;;;;;;;4.60;2.80;;;;;;;24.23;36.74;99520.27;109414;1253;60295;-72
2023/05/31 09:32:36;;;;;;;3.30;2.40;;;;;;;24.41;36.62;99515.47;109407;1253;65029;-71
2023/05/31 09:35:10;;;;;;;5.00;2.40;;;;;;;24.49;36.28;99516.38;109364;1253;59282;-71
2023/05/31 09:37:48;;;;;;;4.20;2.40;;;;;;;24.60;36.53;99514.33;109366;1253;59090;-72
2023/05/31 09:40:22;;;;;;;7.30;3.10;;;;;;;24.69;36.12;99515.27;109381;1253;66200;-72
2023/05/31 09:42:50;;;;;;;4.10;2.30;;;;;;;24.74;35.89;99510.89;109356;1255;60051;-72
2023/05/31 09:45:17;;;;;;;5.70;2.70;;;;;;;24.76;36.36;99508.50;109339;1253;64723;-72
2023/05/31 09:47:44;;;;;;;6.60;3.20;;;;;;;24.86;36.60;99502.05;109397;1253;59084;-71
2023/05/31 09:50:15;;;;;;;5.30;2.50;;;;;;;24.88;36.01;99502.34;109377;1253;58937;-71
2023/05/31 09:52:48;;;;;;;4.00;2.50;;;;;;;24.80;35.44;99496.37;109129;1253;66154;-71
2023/05/31 09:55:16;;;;;;;5.40;2.90;;;;;;;24.81;35.71;99495.58;109003;1253;60495;-71
2023/05/31 09:57:44;;;;;;;4.20;2.40;;;;;;;24.87;35.58;99497.00;109365;1254;64143;-71
2023/05/31 10:00:18;;;;;;;10.80;3.00;;;;;;;24.78;35.48;99493.66;109427;1253;59057;-71
2023/05/31 10:02:47;;;;;;;7.30;2.60;;;;;;;24.70;35.46;99488.67;109388;1253;59896;-71
2023/05/31 10:05:15;;;;;;;4.70;2.50;;;;;;;24.70;36.01;99488.10;109369;1254;66056;-72
2023/05/31 10:07:46;;;;;;;4.70;2.40;;;;;;;24.72;35.86;99486.67;109370;1253;60294;-71
2023/05/31 10:10:13;;;;;;;6.40;3.10;;;;;;;24.72;35.92;99480.72;109359;1253;63792;-71
2023/05/31 10:12:48;;;;;;;5.40;2.60;;;;;;;24.72;35.84;99483.00;109355;1253;59563;-71
2023/05/31 10:15:21;;;;;;;8.80;3.00;;;;;;;24.64;35.47;99481.40;109349;1253;58927;-71
2023/05/31 10:18:09;;;;;;;6.80;3.00;;;;;;;24.52;35.09;99474.39;109400;1253;67184;-71
2023/05/31 10:20:43;;;;;;;5.00;3.20;;;;;;;24.41;35.45;99466.95;109372;1253;59263;-71
2023/05/31 10:23:43;;;;;;;5.50;3.40;;;;;;;24.36;35.32;99467.04;109365;1253;65488;-71
2023/05/31 10:26:20;;;;;;;6.90;3.80;;;;;;;24.34;36.30;99466.85;109336;1253;59154;-71
2023/05/31 10:29:01;;;;;;;4.70;2.40;;;;;;;24.52;37.03;99459.02;109326;1253;58999;-71
2023/05/31 10:31:40;;;;;;;5.50;2.60;;;;;;;24.71;37.39;99454.98;109387;1253;65967;-72
2023/05/31 10:34:20;;;;;;;5.00;2.30;;;;;;;24.84;38.07;99449.55;109342;1259;61153;-72
2023/05/31 10:36:49;;;;;;;3.90;2.60;;;;;;;24.99;38.15;99444.30;109393;1253;65306;-72
2023/05/31 10:39:40;;;;;;;3.10;2.30;;;;;;;25.12;37.74;99443.66;109357;1258;59001;-72
2023/05/31 10:42:22;;;;;;;5.60;3.00;;;;;;;25.15;37.42;99443.98;108762;1262;59210;-72
2023/05/31 10:45:12;;;;;;;4.80;2.30;;;;;;;25.27;37.71;99440.83;108771;1261;65143;-71
2023/05/31 10:48:09;;;;;;;6.10;2.80;;;;;;;25.39;37.72;99442.23;108715;1260;61249;-71
2023/05/31 10:50:51;;;;;;;5.90;2.60;;;;;;;25.49;37.43;99444.09;108311;1268;65291;-71
2023/05/31 10:53:18;;;;;;;7.80;2.50;;;;;;;25.56;37.14;99441.04;108317;1267;58963;-71
2023/05/31 10:55:47;;;;;;;4.60;3.00;;;;;;;25.57;37.16;99439.25;108321;1268;60008;-71
2023/05/31 10:58:26;;;;;;;;;;;;;;;25.67;37.45;99439.51;108322;1267;65905;-71
2023/05/31 11:00:55;;;;;;;5.60;2.60;;;;;;;25.71;36.63;99436.50;108356;1268;59187;-71
2023/05/31 11:03:23;;;;;;;6.50;2.80;;;;;;;25.62;36.63;99432.82;108241;1267;63838;-71
2023/05/31 11:05:59;;;;;;;7.40;2.80;;;;;;;25.60;37.05;99432.53;108311;1268;59374;-72
2023/05/31 11:08:26;;;;;;;6.20;2.70;;;;;;;25.78;37.04;99433.38;108302;1268;59335;-71
2023/05/31 11:11:26;;;;;;;5.70;2.50;;;;;;;25.91;36.29;99432.55;108294;1267;67153;-71
2023/05/31 11:14:00;;;;;;;4.80;2.80;;;;;;;25.74;35.33;99424.11;108386;1268;59937;-71
2023/05/31 11:16:31;;;;;;;6.00;3.00;;;;;;;25.55;35.27;99419.11;108394;1267;64303;-70
2023/05/31 11:19:13;;;;;;;5.40;2.60;;;;;;;25.50;36.08;99412.66;108425;1260;59098;-70
2023/05/31 11:21:55;;;;;;;7.70;3.30;;;;;;;25.52;36.04;99408.02;108816;1260;59173;-71
2023/05/31 11:24:29;;;;;;;4.30;2.50;;;;;;;25.64;36.47;99407.67;108822;1261;66154;-71
2023/05/31 11:27:00;;;;;;;7.50;2.60;;;;;;;25.88;37.13;99405.31;108901;1261;59071;-71
2023/05/31 11:29:53;;;;;;;4.50;2.10;;;;;;;26.09;37.09;99402.61;109425;1254;65048;-70
2023/05/31 11:32:22;;;;;;;4.70;2.40;;;;;;;26.23;36.63;99400.72;109397;1253;59058;-71